Time;durP1;ratioP1;P1;durP2;ratioP2;P2;SDS_P1;SDS_P2;PMS_P1;PMS_P2;Temp;Humidity;BMP_temperature;BMP_pressure;BME280_temperature;BME280_humidity;BME280_pressure;Samples;Min_cycle;Max_cycle;Signal;HPM_P1;HPM_P2
2023/07/25 00:00:06;;;;;;;24.67;14.33;;;;;;;-141.97;50.87;47317.28;5052394;28;20165;-77
2023/07/25 00:02:32;;;;;;;25.17;13.77;;;;;;;-141.97;50.99;47488.31;5052210;28;20679;-77
2023/07/25 00:04:57;;;;;;;23.13;13.23;;;;;;;-141.97;50.85;47334.56;5052026;28;20181;-77
2023/07/25 00:07:23;;;;;;;20.93;13.20;;;;;;;-141.97;50.72;47317.28;5052007;28;20637;-77
2023/07/25 00:09:48;;;;;;;22.87;13.33;;;;;;;-141.97;50.55;47361.47;5051934;28;20211;-77
2023/07/25 00:12:13;;;;;;;19.93;13.30;;;;;;;-141.97;50.87;47380.69;5051877;28;20237;-77
2023/07/25 00:14:39;;;;;;;23.17;13.30;;;;;;;-141.97;51.20;47348.03;5034877;28;20564;-78
2023/07/25 00:17:04;;;;;;;23.30;13.70;;;;;;;-141.97;51.42;47374.94;5050531;28;20268;-77
2023/07/25 00:19:29;;;;;;;21.57;13.00;;;;;;;-141.97;51.58;47346.09;5049956;28;20582;-77
2023/07/25 00:21:55;;;;;;;21.80;13.13;;;;;;;-141.97;51.47;47357.63;5050364;28;20201;-77
2023/07/25 00:24:20;;;;;;;21.23;13.10;;;;;;;-141.97;51.69;47346.09;5050184;28;20181;-78
2023/07/25 00:26:46;;;;;;;21.87;13.30;;;;;;;-141.97;51.71;47369.16;5050019;28;20203;-77
2023/07/25 00:29:11;;;;;;;20.37;13.20;;;;;;;-141.97;51.60;47380.69;5049854;28;20224;-77
2023/07/25 00:31:36;;;;;;;22.70;13.63;;;;;;;-141.97;52.66;47359.56;5049277;28;20272;-77
2023/07/25 00:34:03;;;;;;;21.07;13.30;;;;;;;-141.97;52.52;47376.84;5050448;28;20181;-77
2023/07/25 00:36:29;;;;;;;24.33;13.60;;;;;;;-141.97;52.98;47326.88;5050850;28;20322;-77
2023/07/25 00:38:55;;;;;;;23.47;13.57;;;;;;;-141.97;53.32;47398.00;5050910;28;20200;-77
2023/07/25 00:41:20;;;;;;;24.67;14.03;;;;;;;-141.97;52.80;47376.84;5047462;28;20205;-77
2023/07/25 00:43:45;;;;;;;23.70;14.33;;;;;;;-141.97;52.82;47384.53;5048459;28;20189;-77
2023/07/25 00:46:11;;;;;;;24.40;14.70;;;;;;;-141.97;53.38;47382.63;5049287;28;20653;-77
2023/07/25 00:48:36;;;;;;;27.03;14.87;;;;;;;-141.97;54.34;47373.00;5049670;28;20181;-77
2023/07/25 00:51:03;;;;;;;24.70;14.43;;;;;;;-141.97;55.07;47349.94;5048195;28;20197;-77
2023/07/25 00:53:29;;;;;;;30.93;18.17;;;;;;;-141.97;55.11;47388.38;5047538;28;20207;-77
2023/07/25 00:55:55;;;;;;;36.77;19.80;;;;;;;-141.97;55.30;47374.94;5048993;28;20268;-77
2023/07/25 00:58:21;;;;;;;26.87;15.77;;;;;;;-141.97;54.42;47384.53;5048670;28;20241;-77
2023/07/25 01:00:46;;;;;;;24.60;15.13;;;;;;;-141.97;54.14;47363.41;5048316;28;20173;-77
2023/07/25 01:03:12;;;;;;;27.27;14.50;;;;;;;-141.97;54.08;47380.69;5047322;28;20180;-78
2023/07/25 01:05:44;;;;;;;23.90;15.60;;;;;;;-141.97;54.58;47401.84;5048982;28;20181;-77
2023/07/25 01:08:09;;;;;;;24.23;15.87;;;;;;;-141.97;54.80;47374.94;5050728;28;20154;-77
2023/07/25 01:10:36;;;;;;;26.43;16.03;;;;;;;-141.97;55.70;47446.03;5050672;28;20169;-77
2023/07/25 01:13:01;;;;;;;27.23;15.73;;;;;;;-141.97;55.89;47384.53;5050648;28;20149;-77
2023/07/25 01:15:28;;;;;;;22.97;14.13;;;;;;;-141.97;55.85;47380.69;5050381;28;20540;-77
2023/07/25 01:17:54;;;;;;;22.20;14.23;;;;;;;-141.97;56.23;47407.59;5050360;28;20262;-77
2023/07/25 01:20:20;;;;;;;22.60;14.30;;;;;;;-141.97;55.82;47403.75;5048161;28;20154;-78
2023/07/25 01:22:47;;;;;;;23.00;15.40;;;;;;;-141.97;56.18;47392.22;5038059;28;20316;-77
2023/07/25 01:25:14;;;;;;;22.13;13.83;;;;;;;-141.97;56.45;47384.53;5049450;28;20342;-77
2023/07/25 01:27:39;;;;;;;21.13;13.67;;;;;;;-141.97;56.19;47405.69;5049348;28;20181;-77
2023/07/25 01:30:06;;;;;;;22.40;14.13;;;;;;;-141.97;56.02;47382.63;5049594;28;20161;-77
2023/07/25 01:32:32;;;;;;;25.17;13.67;;;;;;;-141.97;56.59;47321.13;5048431;28;20653;-77
2023/07/25 01:34:57;;;;;;;21.93;13.67;;;;;;;-141.97;57.81;47371.09;5049381;28;20168;-77
2023/07/25 01:37:23;;;;;;;23.33;14.40;;;;;;;-141.97;57.34;47436.44;5049169;28;20216;-77
2023/07/25 01:39:48;;;;;;;22.23;13.33;;;;;;;-141.97;56.83;47407.59;5049245;28;20173;-77
2023/07/25 01:42:13;;;;;;;21.33;13.97;;;;;;;-141.97;56.42;47376.84;5048881;28;20680;-77
2023/07/25 01:44:39;;;;;;;22.70;14.77;;;;;;;-141.97;56.59;47394.16;5048922;28;20181;-77
2023/07/25 01:47:04;;;;;;;20.73;14.03;;;;;;;-141.97;57.41;47430.66;5048158;28;20196;-77
2023/07/25 01:49:30;;;;;;;29.57;14.23;;;;;;;-141.97;57.23;47419.13;5049783;28;20219;-77
2023/07/25 01:51:55;;;;;;;23.20;13.83;;;;;;;-141.97;57.23;47398.00;5050118;28;20166;-77
2023/07/25 01:54:21;;;;;;;24.73;14.30;;;;;;;-141.97;57.87;47422.97;5058649;28;20145;-77
2023/07/25 01:56:46;;;;;;;22.83;14.93;;;;;;;-141.97;58.04;47392.22;5073641;28;20168;-77
2023/07/25 01:59:12;;;;;;;22.40;14.70;;;;;;;-141.97;57.77;47388.38;5050680;28;20518;-77
2023/07/25 02:01:37;;;;;;;25.83;15.87;;;;;;;-141.97;57.83;47442.19;5049911;28;20276;-77
2023/07/25 02:04:03;;;;;;;26.80;15.70;;;;;;;-141.97;57.95;47401.84;5049818;28;20593;-78
2023/07/25 02:06:28;;;;;;;24.67;14.93;;;;;;;-141.97;58.49;47430.66;5050114;28;20598;-78
2023/07/25 02:08:53;;;;;;;21.27;14.63;;;;;;;-141.97;58.63;47413.38;5050041;28;20204;-78
2023/07/25 02:11:19;;;;;;;26.73;15.53;;;;;;;-141.97;58.36;47361.47;5050224;28;20161;-78
2023/07/25 02:13:44;;;;;;;24.37;14.83;;;;;;;-141.97;58.27;47384.53;5049909;28;20169;-77
2023/07/25 02:16:10;;;;;;;24.07;14.67;;;;;;;-141.97;58.24;47430.66;5049602;28;20172;-77
2023/07/25 02:18:35;;;;;;;23.30;14.67;;;;;;;-141.97;58.66;47442.19;5050379;28;20149;-77
2023/07/25 02:21:00;;;;;;;28.70;14.53;;;;;;;-141.97;59.40;47415.28;5053046;28;20193;-78
2023/07/25 02:23:26;;;;;;;24.97;14.87;;;;;;;-141.97;58.79;47426.81;5055998;28;20169;-78
2023/07/25 02:25:51;;;;;;;30.50;17.37;;;;;;;-141.97;58.42;47434.50;5049968;28;20631;-77
2023/07/25 02:28:17;;;;;;;34.33;18.40;;;;;;;-141.97;58.30;47409.53;5054396;28;20197;-77
2023/07/25 02:30:42;;;;;;;32.37;18.70;;;;;;;-141.97;58.15;47430.66;5049907;28;20259;-77
2023/07/25 02:33:07;;;;;;;30.13;17.23;;;;;;;-141.97;58.34;47374.94;5051803;28;20161;-77
2023/07/25 02:35:33;;;;;;;29.70;18.13;;;;;;;-141.97;58.30;47419.13;5052331;28;20165;-77
2023/07/25 02:37:58;;;;;;;29.20;17.93;;;;;;;-141.97;58.57;47286.53;5053516;28;20232;-79
2023/07/25 02:40:24;;;;;;;27.67;17.37;;;;;;;-141.97;58.64;47384.53;5053661;28;20189;-77
2023/07/25 02:42:49;;;;;;;30.23;17.27;;;;;;;-141.97;58.63;47430.66;5053719;28;20684;-77
2023/07/25 02:45:14;;;;;;;29.43;16.83;;;;;;;-141.97;58.67;47421.06;5053428;28;20283;-77
2023/07/25 02:47:40;;;;;;;26.90;16.03;;;;;;;-141.97;58.96;47407.59;5045281;28;20313;-77
2023/07/25 02:50:06;;;;;;;29.60;16.77;;;;;;;-141.97;58.87;47405.69;5033258;28;20169;-77
2023/07/25 02:52:31;;;;;;;24.63;15.97;;;;;;;-141.97;58.91;47421.06;5033858;28;20233;-78
2023/07/25 02:54:57;;;;;;;27.47;16.50;;;;;;;-141.97;59.63;47415.28;5033625;28;20172;-78
2023/07/25 02:57:22;;;;;;;31.90;17.17;;;;;;;-141.97;59.72;47378.78;5034091;28;20165;-78
2023/07/25 02:59:48;;;;;;;27.30;15.93;;;;;;;-141.97;59.82;47428.75;5033649;28;20173;-78
2023/07/25 03:02:13;;;;;;;28.67;16.17;;;;;;;-141.97;60.09;47424.91;5033359;28;20225;-78
2023/07/25 03:04:39;;;;;;;39.67;16.83;;;;;;;-141.97;60.02;47478.72;5033069;28;20204;-78
2023/07/25 03:07:05;;;;;;;42.43;17.33;;;;;;;-141.97;59.77;47417.22;5033105;28;20159;-78
2023/07/25 03:09:30;;;;;;;38.37;17.30;;;;;;;-141.97;60.91;47342.25;5033161;28;20169;-78
2023/07/25 03:11:56;;;;;;;36.63;17.70;;;;;;;-141.97;61.58;47405.69;5043685;28;20367;-78
2023/07/25 03:14:21;;;;;;;32.93;16.93;;;;;;;-141.97;62.47;47444.13;5052568;28;20181;-78
2023/07/25 03:16:47;;;;;;;28.27;16.07;;;;;;;-141.97;63.07;47424.91;5052508;28;20260;-78
2023/07/25 03:19:12;;;;;;;31.23;16.63;;;;;;;-141.97;63.07;47436.44;5052650;28;20772;-78
2023/07/25 03:21:37;;;;;;;29.63;16.97;;;;;;;-141.97;62.70;47419.13;5052737;28;20210;-77
2023/07/25 03:24:03;;;;;;;30.47;16.53;;;;;;;-141.97;62.55;47407.59;5052323;28;20180;-78
2023/07/25 03:26:28;;;;;;;31.27;16.13;;;;;;;-141.97;61.80;47438.34;5052484;28;20161;-78
2023/07/25 03:28:54;;;;;;;30.47;17.00;;;;;;;-141.97;61.50;47415.28;5040711;28;20612;-78
2023/07/25 03:31:19;;;;;;;31.60;17.10;;;;;;;-141.97;61.35;47419.13;5052025;28;20297;-78
2023/07/25 03:33:44;;;;;;;33.33;17.10;;;;;;;-141.97;60.92;47396.06;5052049;28;20177;-78
2023/07/25 03:36:10;;;;;;;30.20;16.47;;;;;;;-141.97;61.00;47657.47;5051749;28;20626;-78
2023/07/25 03:38:35;;;;;;;32.30;16.80;;;;;;;-141.97;61.33;47434.50;5052911;28;20157;-78
2023/07/25 03:41:00;;;;;;;40.47;17.73;;;;;;;-141.97;61.32;47422.97;5052581;28;20197;-77
2023/07/25 03:43:26;;;;;;;35.10;19.27;;;;;;;-141.97;60.91;47415.28;5052414;28;20513;-77
2023/07/25 03:45:51;;;;;;;36.97;19.60;;;;;;;-141.97;61.02;47449.88;5053242;28;20168;-77
2023/07/25 03:48:17;;;;;;;36.27;18.53;;;;;;;-141.97;61.20;47447.97;5052562;28;20173;-77
2023/07/25 03:50:42;;;;;;;36.60;18.97;;;;;;;-141.97;61.00;47438.34;5049023;28;20638;-77
2023/07/25 03:53:08;;;;;;;31.77;18.10;;;;;;;-141.97;61.02;47584.44;5051065;28;20596;-77
2023/07/25 03:55:33;;;;;;;39.67;19.67;;;;;;;-141.97;60.79;47422.97;5050581;28;20181;-77
2023/07/25 03:57:58;;;;;;;56.33;32.57;;;;;;;-141.97;60.92;47338.41;5050944;28;20223;-77
2023/07/25 04:00:24;;;;;;;43.53;23.80;;;;;;;-141.97;61.10;47424.91;5051796;28;20212;-77
2023/07/25 04:02:49;;;;;;;36.10;19.40;;;;;;;-141.97;59.82;47436.44;5050782;28;20325;-77
2023/07/25 04:05:15;;;;;;;33.47;17.97;;;;;;;-141.97;60.06;47426.81;5051570;28;20175;-77
2023/07/25 04:07:40;;;;;;;40.47;18.33;;;;;;;-141.97;59.27;47426.81;5050917;28;20177;-76
2023/07/25 04:10:06;;;;;;;42.00;20.37;;;;;;;-141.97;59.62;47415.28;5050945;28;20208;-77
2023/07/25 04:12:32;;;;;;;32.50;17.23;;;;;;;-141.97;59.86;47432.59;5050776;28;20173;-77
2023/07/25 04:14:57;;;;;;;31.33;16.97;;;;;;;-141.97;60.32;47415.28;5051753;28;20231;-77
2023/07/25 04:17:23;;;;;;;33.10;18.37;;;;;;;-141.97;59.65;47424.91;5062171;28;20184;-77
2023/07/25 04:19:48;;;;;;;29.63;17.20;;;;;;;-141.97;59.73;47388.38;5070591;28;20185;-77
2023/07/25 04:22:14;;;;;;;31.20;17.43;;;;;;;-141.97;58.33;47376.84;5050332;28;20203;-77
2023/07/25 04:24:39;;;;;;;29.17;17.40;;;;;;;-141.97;57.96;47471.03;5059988;28;20197;-76
2023/07/25 04:27:05;;;;;;;28.17;17.43;;;;;;;-141.97;58.23;47401.84;5067693;28;20318;-76
2023/07/25 04:29:30;;;;;;;31.43;17.90;;;;;;;-141.97;58.12;47561.38;5043717;28;20278;-77
2023/07/25 04:31:56;;;;;;;34.77;17.07;;;;;;;-141.97;57.52;47388.38;5051521;28;20182;-77
2023/07/25 04:34:21;;;;;;;33.97;17.90;;;;;;;-141.97;57.84;47444.13;5050700;28;20213;-77
2023/07/25 04:36:47;;;;;;;37.73;18.50;;;;;;;-141.97;58.24;47401.84;5049198;28;20308;-77
2023/07/25 04:39:12;;;;;;;38.77;19.23;;;;;;;-141.97;57.89;47378.78;5050337;28;20181;-77
2023/07/25 04:41:37;;;;;;;37.50;17.37;;;;;;;-141.97;57.35;47405.69;5050849;28;20255;-77
2023/07/25 04:44:03;;;;;;;37.37;18.60;;;;;;;-141.97;56.68;47392.22;5050335;28;20192;-78
2023/07/25 04:46:30;;;;;;;34.97;17.73;;;;;;;-141.97;56.13;47388.38;5050771;28;20280;-77
2023/07/25 04:48:56;;;;;;;37.07;18.07;;;;;;;-141.97;56.52;47386.47;5050221;28;20238;-77
2023/07/25 04:51:21;;;;;;;36.20;18.33;;;;;;;-141.97;56.62;47413.38;5050549;28;20267;-77
2023/07/25 04:53:46;;;;;;;35.47;16.83;;;;;;;-141.97;56.54;47436.44;5050353;28;20256;-77
2023/07/25 04:56:12;;;;;;;35.97;18.40;;;;;;;-141.97;56.50;47405.69;5049348;28;20574;-77
2023/07/25 04:58:43;;;;;;;26.50;15.33;;;;;;;-141.97;55.84;47419.13;5050344;28;20177;-78
2023/07/25 05:01:09;;;;;;;28.93;16.80;;;;;;;-141.97;55.23;47367.25;5049714;28;20543;-77
2023/07/25 05:03:35;;;;;;;28.67;15.60;;;;;;;-141.97;55.58;47382.63;5050059;28;20189;-77
2023/07/25 05:06:00;;;;;;;30.23;15.37;;;;;;;-141.97;55.13;47396.06;5048903;28;20185;-77
2023/07/25 05:08:26;;;;;;;25.67;15.43;;;;;;;-141.97;54.54;47380.69;5050915;28;20560;-77
2023/07/25 05:10:52;;;;;;;25.93;15.13;;;;;;;-141.97;54.19;47392.22;5049648;28;20189;-77
2023/07/25 05:13:18;;;;;;;27.77;15.00;;;;;;;-141.97;54.73;47349.94;5048168;28;20509;-77
2023/07/25 05:15:44;;;;;;;25.13;14.40;;;;;;;-141.97;55.01;47380.69;5049750;28;20184;-77
2023/07/25 05:18:09;;;;;;;20.13;13.60;;;;;;;-141.97;54.86;47595.97;5049484;28;20241;-77
2023/07/25 05:20:34;;;;;;;21.77;12.33;;;;;;;-141.97;55.19;47376.84;5049179;28;20677;-77
2023/07/25 05:23:00;;;;;;;21.07;11.97;;;;;;;-141.97;55.09;47371.09;5049969;28;20219;-76
2023/07/25 05:25:25;;;;;;;19.73;11.73;;;;;;;-141.97;55.11;47394.16;5049768;28;20624;-76
2023/07/25 05:27:51;;;;;;;19.43;11.33;;;;;;;-141.97;55.34;47394.16;5049153;28;20262;-77
2023/07/25 05:30:16;;;;;;;16.20;10.00;;;;;;;-141.97;55.58;47380.69;5048927;28;20280;-77
2023/07/25 05:32:42;;;;;;;17.87;10.30;;;;;;;-141.97;55.49;47367.25;5049782;28;20549;-76
2023/07/25 05:35:07;;;;;;;20.30;11.27;;;;;;;-141.97;55.52;47396.06;5037052;28;20635;-77
2023/07/25 05:37:37;;;;;;;18.67;11.20;;;;;;;-141.97;55.12;47369.16;5049435;28;20221;-77
2023/07/25 05:40:03;;;;;;;18.57;11.03;;;;;;;-141.97;54.84;47376.84;5049248;28;20625;-77
2023/07/25 05:42:30;;;;;;;19.87;11.43;;;;;;;-141.97;54.46;47399.91;5049805;28;20450;-77
2023/07/25 05:44:57;;;;;;;20.17;11.57;;;;;;;-141.97;54.68;47378.78;5049719;28;20181;-77
2023/07/25 05:47:22;;;;;;;15.77;11.57;;;;;;;-141.97;53.96;47373.00;5049244;28;20176;-77
2023/07/25 05:49:47;;;;;;;19.50;11.80;;;;;;;-141.97;53.60;47363.41;5048999;28;20564;-77
2023/07/25 05:52:13;;;;;;;16.38;11.13;;;;;;;-141.97;52.63;47355.72;5049551;28;20169;-78
2023/07/25 05:54:39;;;;;;;20.20;11.40;;;;;;;-141.97;52.68;47342.25;5049220;28;20195;-77
2023/07/25 05:57:05;;;;;;;16.33;10.98;;;;;;;-141.97;52.71;47361.47;5048149;28;20188;-77
2023/07/25 05:59:30;;;;;;;18.50;11.02;;;;;;;-141.97;52.77;47342.25;5048110;28;20183;-77
2023/07/25 06:01:56;;;;;;;16.60;11.38;;;;;;;-141.97;52.41;47388.38;5049120;28;20284;-78
2023/07/25 06:04:21;;;;;;;19.52;11.70;;;;;;;-141.97;52.60;47367.25;5048943;28;20166;-77
2023/07/25 06:06:47;;;;;;;21.23;11.63;;;;;;;-141.97;51.48;47365.31;5048548;28;20698;-77
2023/07/25 06:09:12;;;;;;;22.77;11.55;;;;;;;-141.97;51.39;47353.78;5048982;28;20215;-77
2023/07/25 06:11:38;;;;;;;21.20;12.68;;;;;;;-141.97;51.10;47349.94;5048955;28;20156;-77
2023/07/25 06:14:03;;;;;;;20.08;12.82;;;;;;;-141.97;50.77;47351.88;5049044;28;20165;-78
2023/07/25 06:16:29;;;;;;;20.35;12.68;;;;;;;-141.97;49.74;47330.72;5048670;28;20172;-77
2023/07/25 06:18:54;;;;;;;19.98;12.43;;;;;;;-141.97;49.36;47367.25;5048662;28;20248;-77
2023/07/25 06:21:20;;;;;;;20.80;12.35;;;;;;;-141.97;49.79;47363.41;5048097;28;20275;-78
2023/07/25 06:23:45;;;;;;;19.48;11.93;;;;;;;-141.97;49.49;47351.88;5048588;28;20536;-77
2023/07/25 06:26:11;;;;;;;19.95;12.13;;;;;;;-141.97;49.34;47326.88;5048674;28;20268;-78
2023/07/25 06:28:37;;;;;;;20.33;11.40;;;;;;;-141.97;48.85;47336.50;5049081;28;20605;-78
2023/07/25 06:31:02;;;;;;;20.50;11.90;;;;;;;-141.97;48.43;47315.34;5049065;28;20163;-77
2023/07/25 06:33:28;;;;;;;19.83;13.15;;;;;;;-141.97;48.67;47344.19;5048800;28;20182;-77
2023/07/25 06:35:53;;;;;;;18.88;12.63;;;;;;;-141.97;48.71;47388.38;5034456;28;20227;-77
2023/07/25 06:38:19;;;;;;;20.83;13.50;;;;;;;-141.97;48.55;47355.72;5048794;28;20341;-77
2023/07/25 06:40:44;;;;;;;20.15;12.98;;;;;;;-141.97;47.54;47478.72;5053339;28;20191;-77
2023/07/25 06:43:09;;;;;;;22.95;13.15;;;;;;;-141.97;47.54;47338.41;5057231;28;20310;-78
2023/07/25 06:45:35;;;;;;;19.83;13.07;;;;;;;-141.97;47.27;47328.81;5047990;28;20527;-78
2023/07/25 06:48:00;;;;;;;21.42;14.43;;;;;;;-141.97;46.55;47434.50;5048916;28;20178;-77
2023/07/25 06:50:26;;;;;;;24.33;12.77;;;;;;;-141.97;46.10;47334.56;5048957;28;20227;-78
2023/07/25 06:52:51;;;;;;;18.88;12.48;;;;;;;-141.97;45.24;47336.50;5048765;28;20167;-77
2023/07/25 06:55:19;;;;;;;42.15;13.90;;;;;;;-141.97;45.06;47321.13;5046900;28;20179;-77
2023/07/25 06:57:45;;;;;;;19.75;12.45;;;;;;;-141.97;44.81;47586.34;5048366;28;20168;-77
2023/07/25 07:00:10;;;;;;;23.25;12.57;;;;;;;-141.97;44.71;47315.34;5048832;28;20260;-77
2023/07/25 07:02:36;;;;;;;20.10;11.98;;;;;;;-141.97;44.63;47299.97;5048629;28;20272;-77
2023/07/25 07:05:01;;;;;;;19.17;12.25;;;;;;;-141.97;43.91;47298.06;5049408;28;20179;-77
2023/07/25 07:07:27;;;;;;;19.17;12.70;;;;;;;-141.97;43.37;47315.34;5060214;28;20165;-77
2023/07/25 07:09:52;;;;;;;19.60;12.82;;;;;;;-141.97;44.30;47317.28;5055974;28;20161;-77
2023/07/25 07:12:17;;;;;;;19.77;12.23;;;;;;;-141.97;43.64;47328.81;5049037;28;20161;-77
2023/07/25 07:14:43;;;;;;;19.92;12.90;;;;;;;-141.97;42.72;47292.28;5048347;28;20241;-77
2023/07/25 07:17:08;;;;;;;20.45;12.35;;;;;;;-141.97;41.84;47321.13;5048180;28;20166;-77
2023/07/25 07:19:34;;;;;;;18.95;12.40;;;;;;;-141.97;41.31;47246.16;5051457;28;20204;-77
2023/07/25 07:21:59;;;;;;;19.00;12.30;;;;;;;-141.97;40.96;47305.75;5052093;28;20636;-76
2023/07/25 07:24:24;;;;;;;21.52;12.10;;;;;;;-141.97;40.88;47296.13;5052204;28;20172;-77
2023/07/25 07:26:50;;;;;;;19.75;13.05;;;;;;;-141.97;41.02;47315.34;5052147;28;20279;-77
2023/07/25 07:29:15;;;;;;;20.25;12.55;;;;;;;-141.97;41.27;47305.75;5051468;28;20178;-77
2023/07/25 07:31:40;;;;;;;22.15;12.68;;;;;;;-141.97;41.24;47298.06;5051747;28;20183;-77
2023/07/25 07:34:15;;;;;;;20.02;12.40;;;;;;;-141.97;39.94;47298.06;5055015;28;20167;-79
2023/07/25 07:36:44;;;;;;;19.92;12.13;;;;;;;-141.97;39.63;47305.75;5041249;28;20236;-78
2023/07/25 07:39:10;;;;;;;19.75;12.70;;;;;;;-141.97;40.07;47328.81;5051584;28;20177;-78
2023/07/25 07:41:36;;;;;;;18.00;12.25;;;;;;;-141.97;40.06;47230.78;5052363;28;20224;-78
2023/07/25 07:44:02;;;;;;;24.38;13.20;;;;;;;-141.97;39.95;47269.22;5049915;28;20211;-76
2023/07/25 07:46:31;;;;;;;19.77;12.55;;;;;;;-141.97;39.27;47332.66;5053179;28;20179;-77
2023/07/25 07:48:57;;;;;;;20.08;12.32;;;;;;;-141.97;39.43;47290.38;5051112;28;20197;-77
2023/07/25 07:51:23;;;;;;;18.55;12.25;;;;;;;-141.97;38.75;47296.13;5051208;28;20157;-78
2023/07/25 07:53:49;;;;;;;18.50;12.48;;;;;;;-141.97;38.76;47248.09;5051278;28;20226;-77
2023/07/25 07:56:14;;;;;;;21.35;12.02;;;;;;;-141.97;38.71;47273.06;5051118;28;20155;-78
2023/07/25 07:58:40;;;;;;;23.05;12.80;;;;;;;-141.97;38.40;47280.75;5050987;28;20174;-77
2023/07/25 08:01:13;;;;;;;22.95;13.70;;;;;;;-141.97;39.14;47286.53;5051051;28;20187;-77
2023/07/25 08:03:38;;;;;;;26.90;12.38;;;;;;;-141.97;39.65;47280.75;5051333;28;20168;-77
2023/07/25 08:06:04;;;;;;;20.02;13.35;;;;;;;-141.97;38.72;47261.53;5050340;28;20216;-77
2023/07/25 08:08:29;;;;;;;20.02;12.90;;;;;;;-141.97;38.41;47263.47;5051386;28;20264;-78
2023/07/25 08:10:55;;;;;;;20.50;13.75;;;;;;;-141.97;38.23;47269.22;5050539;28;20200;-77
2023/07/25 08:13:20;;;;;;;21.35;13.43;;;;;;;-141.97;37.75;47251.94;5052087;28;20175;-77
2023/07/25 08:15:45;;;;;;;17.35;12.52;;;;;;;-141.97;37.95;47253.84;5050998;28;20258;-78
2023/07/25 08:18:11;;;;;;;19.58;13.48;;;;;;;-141.97;38.51;47242.31;5050739;28;20342;-77
2023/07/25 08:20:36;;;;;;;23.90;12.95;;;;;;;-141.97;37.60;47276.91;5051082;28;20195;-77
2023/07/25 08:23:01;;;;;;;20.90;13.73;;;;;;;-141.97;36.73;47234.63;5050632;28;20203;-78
2023/07/25 08:25:27;;;;;;;21.40;13.40;;;;;;;-141.97;36.58;47242.31;5049254;28;20183;-77
2023/07/25 08:27:52;;;;;;;18.33;12.70;;;;;;;-141.97;36.56;47261.53;5050417;28;20186;-77
2023/07/25 08:30:18;;;;;;;20.02;12.60;;;;;;;-141.97;36.95;47207.72;5049567;28;20162;-77
2023/07/25 08:32:43;;;;;;;20.42;12.73;;;;;;;-141.97;36.27;47211.56;5050787;28;20598;-77
2023/07/25 08:35:08;;;;;;;18.90;12.55;;;;;;;-141.97;36.26;47221.19;5050646;28;20227;-77
2023/07/25 08:37:34;;;;;;;20.23;12.80;;;;;;;-141.97;36.84;47165.44;5050314;28;20221;-78
2023/07/25 08:39:59;;;;;;;19.08;12.82;;;;;;;-141.97;36.69;47207.72;5050210;28;20184;-78
2023/07/25 08:42:26;;;;;;;20.65;13.43;;;;;;;-141.97;36.72;47286.53;5038974;28;20233;-78
2023/07/25 08:44:53;;;;;;;22.33;12.60;;;;;;;-141.97;36.35;47223.09;5050685;28;20160;-78
2023/07/25 08:47:25;;;;;;;23.55;12.75;;;;;;;-141.97;36.23;47217.34;5050248;28;20177;-77
2023/07/25 08:49:55;;;;;;;18.88;12.60;;;;;;;-141.97;36.21;47226.94;5049935;28;20260;-77
2023/07/25 08:52:24;;;;;;;19.10;12.25;;;;;;;-141.97;35.85;47169.28;5050438;28;20634;-78
2023/07/25 08:54:50;;;;;;;18.95;12.15;;;;;;;-141.97;35.80;47230.78;5049861;28;20645;-77
2023/07/25 08:57:16;;;;;;;19.05;11.98;;;;;;;-141.97;35.71;47238.47;5044688;28;20192;-78
2023/07/25 08:59:42;;;;;;;20.48;12.00;;;;;;;-141.97;35.29;47173.13;5048983;28;20173;-78
2023/07/25 09:02:10;;;;;;;20.77;11.70;;;;;;;-141.97;35.01;47192.34;5055247;28;20207;-77
2023/07/25 09:04:36;;;;;;;20.75;11.73;;;;;;;-141.97;35.63;47205.81;5059974;28;20193;-78
2023/07/25 09:07:02;;;;;;;16.85;11.40;;;;;;;-141.97;36.14;47188.50;5049464;28;20798;-77
2023/07/25 09:09:27;;;;;;;16.67;11.18;;;;;;;-141.97;36.51;47163.53;5048188;28;20173;-77
2023/07/25 09:11:54;;;;;;;21.60;11.52;;;;;;;-141.97;36.37;47186.59;5049172;28;20260;-78
2023/07/25 09:14:20;;;;;;;16.33;11.35;;;;;;;-141.97;36.83;47178.91;5049870;28;20177;-78
2023/07/25 09:16:45;;;;;;;15.95;11.38;;;;;;;-141.97;36.24;47207.72;5049340;28;20632;-79
2023/07/25 09:19:12;;;;;;;16.08;10.85;;;;;;;-141.97;35.89;47196.19;5049457;28;20264;-77
2023/07/25 09:21:53;;;;;;;15.10;11.70;;;;;;;-141.97;35.42;47203.88;5050542;28;20217;-78
2023/07/25 09:24:18;;;;;;;18.05;11.45;;;;;;;-141.97;35.49;47215.41;5049424;28;20168;-78
2023/07/25 09:26:51;;;;;;;18.85;11.00;;;;;;;-141.97;35.58;47226.94;5045269;28;20185;-78
2023/07/25 09:29:17;;;;;;;16.10;11.07;;;;;;;-141.97;35.23;47238.47;5040948;28;20689;-78
2023/07/25 09:31:46;;;;;;;17.13;11.65;;;;;;;-141.97;35.69;47223.09;5047088;28;20189;-78
2023/07/25 09:34:17;;;;;;;15.60;10.82;;;;;;;-141.97;36.31;47569.06;5049070;28;20556;-78
2023/07/25 09:36:47;;;;;;;16.52;11.25;;;;;;;-141.97;36.14;47219.25;5083235;28;20228;-77
2023/07/25 09:39:14;;;;;;;20.00;11.52;;;;;;;-141.97;36.09;47196.19;5049391;28;20649;-78
2023/07/25 09:41:39;;;;;;;16.10;11.60;;;;;;;-141.97;35.83;47200.03;5042023;28;20213;-77
2023/07/25 09:44:07;;;;;;;19.20;11.50;;;;;;;-141.97;35.80;47203.88;5020137;28;20763;-79
2023/07/25 09:46:33;;;;;;;17.73;11.30;;;;;;;-141.97;35.76;47165.44;5048850;28;20184;-78
2023/07/25 09:48:58;;;;;;;17.05;11.52;;;;;;;-141.97;34.89;47217.34;5049092;28;20173;-77
2023/07/25 09:51:24;;;;;;;17.48;11.68;;;;;;;-141.97;34.30;47421.06;5030231;28;20185;-76
2023/07/25 09:53:51;;;;;;;23.33;13.00;;;;;;;-141.97;33.78;47123.16;5047979;28;20312;-79
2023/07/25 09:56:17;;;;;;;21.45;12.48;;;;;;;-141.97;33.75;47171.22;5048552;28;20185;-76
2023/07/25 09:58:42;;;;;;;16.15;11.93;;;;;;;-141.97;33.63;47175.06;5048202;28;20276;-78
2023/07/25 10:01:09;;;;;;;16.52;11.35;;;;;;;-141.97;33.97;47194.28;5049387;28;20196;-78
2023/07/25 10:03:35;;;;;;;14.90;11.43;;;;;;;-141.97;35.19;47200.03;5048538;28;20560;-78
2023/07/25 10:06:04;;;;;;;16.17;12.00;;;;;;;-141.97;34.66;47188.50;5049197;28;20177;-79
2023/07/25 10:08:30;;;;;;;15.80;12.00;;;;;;;-141.97;34.34;47167.38;5033513;28;20694;-78
2023/07/25 10:10:56;;;;;;;15.15;11.45;;;;;;;-141.97;34.16;47142.38;5048004;28;20566;-77
2023/07/25 10:13:25;;;;;;;17.90;11.93;;;;;;;-141.97;33.05;47138.53;5048195;28;20173;-76
2023/07/25 10:15:51;;;;;;;17.13;12.00;;;;;;;-141.97;33.85;47138.53;5048604;28;20466;-79
2023/07/25 10:18:24;;;;;;;16.20;11.85;;;;;;;-141.97;33.96;47213.50;5048270;28;20169;-76
2023/07/25 10:20:51;;;;;;;20.45;12.50;;;;;;;-141.97;33.29;47180.81;5048419;28;20203;-79
2023/07/25 10:23:17;;;;;;;20.38;12.23;;;;;;;-141.97;33.07;47205.81;5079857;28;20700;-78
2023/07/25 10:25:43;;;;;;;18.85;12.32;;;;;;;-141.97;32.85;47192.34;5048395;28;20266;-79
2023/07/25 10:28:08;;;;;;;15.82;12.38;;;;;;;-141.97;32.98;47184.66;5048239;28;20177;-77
2023/07/25 10:30:48;;;;;;;18.60;12.63;;;;;;;-141.97;32.93;47200.03;5047944;28;20264;-76
2023/07/25 10:33:15;;;;;;;21.23;13.15;;;;;;;-141.97;33.17;47209.66;5048495;28;20568;-77
2023/07/25 10:35:50;;;;;;;20.33;13.20;;;;;;;-141.97;33.45;47176.97;5048226;28;20165;-76
2023/07/25 10:38:34;;;;;;;18.25;12.68;;;;;;;-141.97;33.11;47176.97;5047769;28;20903;-77
2023/07/25 10:41:09;;;;;;;20.55;13.13;;;;;;;-141.97;33.35;47184.66;5041676;28;20272;-77
2023/07/25 10:43:55;;;;;;;17.40;13.02;;;;;;;-141.97;33.75;47175.06;5048717;28;20575;-77
2023/07/25 10:46:32;;;;;;;19.17;13.05;;;;;;;-141.97;33.81;47192.34;5048655;28;20423;-77
2023/07/25 10:49:02;;;;;;;17.83;13.07;;;;;;;-141.97;34.04;47176.97;5048593;28;20645;-76
2023/07/25 10:51:49;;;;;;;17.35;12.77;;;;;;;-141.97;34.05;47167.38;5048367;28;20525;-77
2023/07/25 10:54:19;;;;;;;20.52;12.57;;;;;;;-141.97;33.44;47188.50;5038773;28;20319;-77
2023/07/25 10:57:06;;;;;;;17.20;12.65;;;;;;;-141.97;33.47;47169.28;5052085;28;20189;-77